createdAt,value
2018-08-11T00:00:54.135Z,0.00
2018-08-11T00:01:54.091Z,0.00
2018-08-11T00:02:54.073Z,0.00
2018-08-11T00:03:54.069Z,0.00
2018-08-11T00:04:54.057Z,0.00
2018-08-11T00:05:54.055Z,0.00
2018-08-11T00:06:54.053Z,0.00
2018-08-11T00:07:54.029Z,0.00
2018-08-11T00:08:54.016Z,0.00
2018-08-11T00:09:54.008Z,0.00
2018-08-11T00:10:54.004Z,0.00
2018-08-11T00:11:53.984Z,0.00
2018-08-11T00:12:53.967Z,0.00
2018-08-11T00:13:53.991Z,0.00
2018-08-11T00:14:53.941Z,0.00
2018-08-11T00:15:53.942Z,0.00
2018-08-11T00:16:53.934Z,0.00
2018-08-11T00:17:53.916Z,0.00
2018-08-11T00:18:53.894Z,0.00
2018-08-11T00:19:53.905Z,0.00
2018-08-11T00:20:53.936Z,0.00
2018-08-11T00:21:53.889Z,0.00
2018-08-11T00:22:53.865Z,0.00
2018-08-11T00:23:53.863Z,0.00
2018-08-11T00:24:53.872Z,0.00
2018-08-11T00:25:53.843Z,0.00
2018-08-11T00:26:53.836Z,0.00
2018-08-11T00:27:53.814Z,0.00
2018-08-11T00:28:53.856Z,0.00
2018-08-11T00:29:53.801Z,0.00
2018-08-11T00:30:53.795Z,0.00
2018-08-11T00:31:53.777Z,0.00
2018-08-11T00:32:53.791Z,0.00
2018-08-11T00:33:53.749Z,0.00
2018-08-11T00:34:53.725Z,0.00
2018-08-11T00:35:53.739Z,0.00
2018-08-11T00:36:53.706Z,0.00
2018-08-11T00:37:53.693Z,0.00
2018-08-11T00:38:53.713Z,0.00
2018-08-11T00:39:53.682Z,0.00
2018-08-11T00:40:53.678Z,0.00
2018-08-11T00:41:53.654Z,0.00
2018-08-11T00:42:53.646Z,0.00
2018-08-11T00:43:53.641Z,0.00
2018-08-11T00:44:53.617Z,0.00
2018-08-11T00:45:55.307Z,0.00
2018-08-11T00:46:53.604Z,0.00
2018-08-11T00:47:53.597Z,0.00
2018-08-11T00:48:53.688Z,0.00
2018-08-11T00:49:53.592Z,0.00
2018-08-11T00:50:53.587Z,0.00
2018-08-11T00:51:53.564Z,0.00
2018-08-11T00:52:53.645Z,0.00
2018-08-11T00:53:53.570Z,0.00
2018-08-11T00:54:53.532Z,0.00
2018-08-11T00:55:54.087Z,0.00
2018-08-11T00:56:53.495Z,0.00
2018-08-11T00:57:53.499Z,0.00
2018-08-11T00:58:53.491Z,0.00
2018-08-11T00:59:53.459Z,0.00
2018-08-11T01:00:53.463Z,0.00
2018-08-11T01:01:53.441Z,0.00
2018-08-11T01:02:53.435Z,0.00
2018-08-11T01:03:53.452Z,0.00
2018-08-11T01:04:53.447Z,0.00
2018-08-11T01:05:53.448Z,0.00
2018-08-11T01:06:53.380Z,0.00
2018-08-11T01:07:53.373Z,0.00
2018-08-11T01:08:53.368Z,0.00
2018-08-11T01:09:53.353Z,0.00
2018-08-11T01:10:53.415Z,0.00
2018-08-11T01:11:53.347Z,0.00
2018-08-11T01:12:53.337Z,0.00
2018-08-11T01:13:53.339Z,0.00
2018-08-11T01:14:53.304Z,0.00
2018-08-11T01:15:53.282Z,0.00
2018-08-11T01:16:53.287Z,0.00
2018-08-11T01:17:53.265Z,0.00
2018-08-11T01:18:53.246Z,0.00
2018-08-11T01:19:53.236Z,0.00
2018-08-11T01:20:53.236Z,0.00
2018-08-11T01:21:53.234Z,0.00
2018-08-11T01:22:53.209Z,0.00
2018-08-11T01:23:53.201Z,0.00
2018-08-11T01:24:53.197Z,0.00
2018-08-11T01:25:53.180Z,0.00
2018-08-11T01:26:53.191Z,0.00
2018-08-11T01:27:53.156Z,0.00
2018-08-11T01:28:53.170Z,0.00
2018-08-11T01:29:53.153Z,0.00
2018-08-11T01:30:53.115Z,0.00
2018-08-11T01:31:53.135Z,0.00
2018-08-11T01:32:53.099Z,0.00
2018-08-11T01:33:53.090Z,0.00
2018-08-11T01:34:53.085Z,0.00
2018-08-11T01:35:53.094Z,0.00
2018-08-11T01:36:53.076Z,0.00
2018-08-11T01:37:53.045Z,0.00
2018-08-11T01:38:53.059Z,0.00
2018-08-11T01:39:53.024Z,0.00
2018-08-11T01:40:53.061Z,0.00
2018-08-11T01:41:53.009Z,0.00
2018-08-11T01:42:53.005Z,0.00
2018-08-11T01:43:52.982Z,0.00
2018-08-11T01:44:52.972Z,0.00
2018-08-11T01:45:52.967Z,0.00
2018-08-11T01:46:52.967Z,0.00
2018-08-11T01:47:52.953Z,0.00
2018-08-11T01:48:52.928Z,0.00
2018-08-11T01:49:52.917Z,0.00
2018-08-11T01:50:52.903Z,0.00
2018-08-11T01:51:52.895Z,0.00
2018-08-11T01:52:52.913Z,0.00
2018-08-11T01:53:52.876Z,0.00
2018-08-11T01:54:52.863Z,0.00
2018-08-11T01:55:52.857Z,0.00
2018-08-11T01:56:52.849Z,0.00
2018-08-11T01:57:52.843Z,0.00
2018-08-11T01:58:52.840Z,0.00
2018-08-11T01:59:52.805Z,0.00
2018-08-11T02:00:52.803Z,0.00
2018-08-11T02:01:52.792Z,0.00
2018-08-11T02:02:52.791Z,0.00
2018-08-11T02:03:52.763Z,0.00
2018-08-11T02:04:52.748Z,0.00
2018-08-11T02:05:52.741Z,0.00
2018-08-11T02:06:52.742Z,0.00
2018-08-11T02:07:52.735Z,0.00
2018-08-11T02:08:52.708Z,0.00
2018-08-11T02:09:52.703Z,0.00
2018-08-11T02:10:52.682Z,0.00
2018-08-11T02:11:52.674Z,0.00
2018-08-11T02:12:55.066Z,0.00
2018-08-11T02:13:52.665Z,0.00
2018-08-11T02:14:52.643Z,0.00
2018-08-11T02:15:52.669Z,0.00
2018-08-11T02:16:52.618Z,0.00
2018-08-11T02:17:52.649Z,0.00
2018-08-11T02:18:52.618Z,0.00
2018-08-11T02:19:52.599Z,0.00
2018-08-11T02:20:52.611Z,0.00
2018-08-11T02:21:52.570Z,0.00
2018-08-11T02:22:52.589Z,0.00
2018-08-11T02:23:52.548Z,0.00
2018-08-11T02:24:52.614Z,0.00
2018-08-11T02:25:52.534Z,0.00
2018-08-11T02:26:52.512Z,0.00
2018-08-11T02:27:52.529Z,0.00
2018-08-11T02:28:52.489Z,0.00
2018-08-11T02:29:52.478Z,0.00
2018-08-11T02:30:52.496Z,0.00
2018-08-11T02:31:52.452Z,0.00
2018-08-11T02:32:52.456Z,0.00
2018-08-11T02:33:52.436Z,0.00
2018-08-11T02:34:52.418Z,0.00
2018-08-11T02:35:52.415Z,0.00
2018-08-11T02:36:52.409Z,0.00
2018-08-11T02:37:52.410Z,0.00
2018-08-11T02:38:52.453Z,0.00
2018-08-11T02:39:52.395Z,0.00
2018-08-11T02:40:52.375Z,0.00
2018-08-11T02:41:52.378Z,0.00
2018-08-11T02:42:52.352Z,0.00
2018-08-11T02:43:52.325Z,0.00
2018-08-11T02:44:52.334Z,0.00
2018-08-11T02:45:52.313Z,0.00
2018-08-11T02:46:52.286Z,0.00
2018-08-11T02:47:52.300Z,0.00
2018-08-11T02:48:52.272Z,0.00
2018-08-11T02:49:52.270Z,0.00
2018-08-11T02:50:52.271Z,0.00
2018-08-11T02:51:52.242Z,0.00
2018-08-11T02:52:52.257Z,0.00
2018-08-11T02:53:52.212Z,0.00
2018-08-11T02:54:52.198Z,0.00
2018-08-11T02:55:52.201Z,0.00
2018-08-11T02:56:52.191Z,0.00
2018-08-11T02:57:52.179Z,0.00
2018-08-11T02:58:52.178Z,0.00
2018-08-11T02:59:52.157Z,0.00
2018-08-11T03:00:52.138Z,0.00
2018-08-11T03:01:52.128Z,0.00
2018-08-11T03:02:52.120Z,0.00
2018-08-11T03:03:52.125Z,0.00
2018-08-11T03:04:52.129Z,0.00
2018-08-11T03:05:52.093Z,0.00
2018-08-11T03:06:52.079Z,0.00
2018-08-11T03:07:52.075Z,0.00
2018-08-11T03:08:52.079Z,0.00
2018-08-11T03:09:52.052Z,0.00
2018-08-11T03:10:52.043Z,0.00
2018-08-11T03:11:52.034Z,0.00
2018-08-11T03:12:52.022Z,0.00
2018-08-11T03:13:52.046Z,0.00
2018-08-11T03:14:52.021Z,0.00
2018-08-11T03:15:51.987Z,0.00
2018-08-11T03:16:51.970Z,0.00
2018-08-11T03:17:51.967Z,0.00
2018-08-11T03:18:51.968Z,0.00
2018-08-11T03:19:51.949Z,0.00
2018-08-11T03:20:51.939Z,0.00
2018-08-11T03:21:51.921Z,0.00
2018-08-11T03:22:51.921Z,0.00
2018-08-11T03:23:55.036Z,0.00
2018-08-11T03:24:51.884Z,0.00
2018-08-11T03:25:51.881Z,0.00
2018-08-11T03:26:51.869Z,0.00
2018-08-11T03:27:51.858Z,0.00
2018-08-11T03:28:51.868Z,0.00
2018-08-11T03:29:51.844Z,0.00
2018-08-11T03:30:51.850Z,0.00
2018-08-11T03:31:51.802Z,0.00
2018-08-11T03:32:51.797Z,0.00
2018-08-11T03:33:51.792Z,0.00
2018-08-11T03:34:52.931Z,0.00
2018-08-11T03:35:51.774Z,0.00
2018-08-11T03:36:51.768Z,0.00
2018-08-11T03:37:51.759Z,0.00
2018-08-11T03:38:51.730Z,0.00
2018-08-11T03:39:51.747Z,0.00
2018-08-11T03:40:51.722Z,0.00
2018-08-11T03:41:51.713Z,0.00
2018-08-11T03:42:51.700Z,0.00
2018-08-11T03:43:51.703Z,4.00
2018-08-11T03:44:51.726Z,4.00
2018-08-11T03:45:51.677Z,4.00
2018-08-11T03:46:51.652Z,4.00
2018-08-11T03:47:51.634Z,4.00
2018-08-11T03:48:51.653Z,8.00
2018-08-11T03:49:51.771Z,4.00
2018-08-11T03:50:51.605Z,8.00
2018-08-11T03:51:51.610Z,8.00
2018-08-11T03:52:51.585Z,12.00
2018-08-11T03:53:51.607Z,12.00
2018-08-11T03:54:51.581Z,16.00
2018-08-11T03:55:51.558Z,16.00
2018-08-11T03:56:51.555Z,20.00
2018-08-11T03:57:51.571Z,24.00
2018-08-11T03:58:51.532Z,28.00
2018-08-11T03:59:51.545Z,32.00
2018-08-11T04:00:51.507Z,36.00
2018-08-11T04:01:51.489Z,44.00
2018-08-11T04:02:51.505Z,48.00
2018-08-11T04:03:51.464Z,56.00
2018-08-11T04:04:51.483Z,64.00
2018-08-11T04:05:51.449Z,72.00
2018-08-11T04:06:51.430Z,88.00
2018-08-11T04:07:51.427Z,100.00
2018-08-11T04:08:51.417Z,116.00
2018-08-11T04:09:51.414Z,132.00
2018-08-11T04:10:51.400Z,144.00
2018-08-11T04:11:51.402Z,164.00
2018-08-11T04:12:51.363Z,184.00
2018-08-11T04:13:51.361Z,200.00
2018-08-11T04:14:53.295Z,216.00
2018-08-11T04:15:51.339Z,240.00
2018-08-11T04:16:51.332Z,264.00
2018-08-11T04:17:51.326Z,288.00
2018-08-11T04:18:51.302Z,316.00
2018-08-11T04:19:51.337Z,344.00
2018-08-11T04:20:51.285Z,372.00
2018-08-11T04:21:51.282Z,400.00
2018-08-11T04:22:51.268Z,420.00
2018-08-11T04:23:51.245Z,444.00
2018-08-11T04:24:51.238Z,472.00
2018-08-11T04:25:51.250Z,504.00
2018-08-11T04:26:51.227Z,540.00
2018-08-11T04:27:51.223Z,580.00
2018-08-11T04:28:51.201Z,620.00
2018-08-11T04:29:51.211Z,668.00
2018-08-11T04:30:51.204Z,712.00
2018-08-11T04:31:51.164Z,764.00
2018-08-11T04:32:51.158Z,812.00
2018-08-11T04:33:51.141Z,868.00
2018-08-11T04:34:51.136Z,928.00
2018-08-11T04:35:51.152Z,984.00
2018-08-11T04:36:51.112Z,1028.00
2018-08-11T04:37:51.105Z,1084.00
2018-08-11T04:38:51.092Z,1140.00
2018-08-11T04:39:51.117Z,1188.00
2018-08-11T04:40:52.068Z,1236.00
2018-08-11T04:41:51.091Z,1288.00
2018-08-11T04:42:51.113Z,1372.00
2018-08-11T04:43:51.070Z,1452.00
2018-08-11T04:44:51.060Z,1552.00
2018-08-11T04:45:51.039Z,1652.00
2018-08-11T04:46:51.033Z,1760.00
2018-08-11T04:47:51.018Z,1840.00
2018-08-11T04:48:51.004Z,1880.00
2018-08-11T04:49:50.979Z,1932.00
2018-08-11T04:50:50.978Z,2064.00
2018-08-11T04:51:50.950Z,2224.00
2018-08-11T04:52:50.959Z,2336.00
2018-08-11T04:53:50.942Z,2364.00
2018-08-11T04:54:50.949Z,2416.00
2018-08-11T04:55:52.558Z,2464.00
2018-08-11T04:56:50.901Z,2508.00
2018-08-11T04:57:50.895Z,2560.00
2018-08-11T04:58:50.916Z,2604.00
2018-08-11T04:59:50.885Z,2620.00
2018-08-11T05:00:50.922Z,2672.00
2018-08-11T05:01:50.862Z,2768.00
2018-08-11T05:02:50.849Z,2936.00
2018-08-11T05:03:50.847Z,3132.00
2018-08-11T05:04:50.809Z,3364.00
2018-08-11T05:05:50.820Z,3620.00
2018-08-11T05:06:50.821Z,3860.00
2018-08-11T05:07:50.794Z,4072.00
2018-08-11T05:08:50.761Z,4268.00
2018-08-11T05:09:50.758Z,4452.00
2018-08-11T05:10:50.781Z,4708.00
2018-08-11T05:11:50.733Z,4964.00
2018-08-11T05:12:50.727Z,5060.00
2018-08-11T05:13:50.715Z,5152.00
2018-08-11T05:14:50.697Z,5236.00
2018-08-11T05:15:50.709Z,5488.00
2018-08-11T05:16:50.675Z,5604.00
2018-08-11T05:17:50.667Z,5616.00
2018-08-11T05:18:50.664Z,5592.00
2018-08-11T05:19:50.657Z,5600.00
2018-08-11T05:20:50.678Z,5780.00
2018-08-11T05:21:50.626Z,5948.00
2018-08-11T05:22:50.650Z,5772.00
2018-08-11T05:23:50.607Z,5756.00
2018-08-11T05:24:50.622Z,5720.00
2018-08-11T05:25:53.517Z,5708.00
2018-08-11T05:26:50.569Z,5652.00
2018-08-11T05:27:50.567Z,5588.00
2018-08-11T05:28:50.548Z,5580.00
2018-08-11T05:29:50.545Z,5580.00
2018-08-11T05:30:50.535Z,5672.00
2018-08-11T05:31:50.539Z,5764.00
2018-08-11T05:32:50.508Z,5848.00
2018-08-11T05:33:50.498Z,6024.00
2018-08-11T05:34:50.543Z,6252.00
2018-08-11T05:35:50.498Z,6512.00
2018-08-11T05:36:50.475Z,6768.00
2018-08-11T05:37:50.476Z,6956.00
2018-08-11T05:38:50.437Z,7124.00
2018-08-11T05:39:50.440Z,7260.00
2018-08-11T05:40:50.442Z,7384.00
2018-08-11T05:41:50.426Z,7460.00
2018-08-11T05:42:50.397Z,7564.00
2018-08-11T05:43:50.383Z,7432.00
2018-08-11T05:44:50.387Z,7808.00
2018-08-11T05:45:50.383Z,7576.00
2018-08-11T05:46:50.393Z,6916.00
2018-08-11T05:47:50.349Z,6732.00
2018-08-11T05:48:50.396Z,6716.00
2018-08-11T05:49:50.355Z,6860.00
2018-08-11T05:50:50.331Z,6968.00
2018-08-11T05:51:50.342Z,7088.00
2018-08-11T05:52:50.305Z,7268.00
2018-08-11T05:53:50.314Z,7312.00
2018-08-11T05:54:50.282Z,7460.00
2018-08-11T05:55:50.275Z,7668.00
2018-08-11T05:56:50.270Z,7540.00
2018-08-11T05:57:50.265Z,7628.00
2018-08-11T05:58:50.229Z,7688.00
2018-08-11T05:59:50.244Z,7776.00
2018-08-11T06:00:50.202Z,7968.00
2018-08-11T06:01:50.208Z,7924.00
2018-08-11T06:02:50.185Z,8296.00
2018-08-11T06:03:50.210Z,8124.00
2018-08-11T06:04:50.184Z,7452.00
2018-08-11T06:05:50.148Z,7260.00
2018-08-11T06:06:50.208Z,6656.00
2018-08-11T06:07:50.149Z,6236.00
2018-08-11T06:08:50.113Z,6424.00
2018-08-11T06:09:50.125Z,6352.00
2018-08-11T06:10:50.110Z,6324.00
2018-08-11T06:11:50.129Z,6384.00
2018-08-11T06:12:50.074Z,6100.00
2018-08-11T06:13:50.062Z,6256.00
2018-08-11T06:14:50.120Z,6212.00
2018-08-11T06:15:50.079Z,6176.00
2018-08-11T06:16:50.151Z,6128.00
2018-08-11T06:17:50.036Z,6132.00
2018-08-11T06:18:50.008Z,6144.00
2018-08-11T06:19:50.044Z,6128.00
2018-08-11T06:20:49.998Z,6104.00
2018-08-11T06:21:51.427Z,6068.00
2018-08-11T06:22:49.965Z,6052.00
2018-08-11T06:23:50.638Z,6056.00
2018-08-11T06:24:49.950Z,6080.00
2018-08-11T06:25:50.003Z,6092.00
2018-08-11T06:26:50.728Z,6064.00
2018-08-11T06:27:49.908Z,6116.00
2018-08-11T06:28:49.915Z,6128.00
2018-08-11T06:29:49.910Z,6176.00
2018-08-11T06:30:49.904Z,6240.00
2018-08-11T06:31:50.004Z,6304.00
2018-08-11T06:32:49.862Z,6328.00
2018-08-11T06:33:49.850Z,6232.00
2018-08-11T06:34:49.920Z,6476.00
2018-08-11T06:35:49.838Z,6524.00
2018-08-11T06:36:50.014Z,6632.00
2018-08-11T06:37:49.820Z,6768.00
2018-08-11T06:38:49.795Z,7280.00
2018-08-11T06:39:49.807Z,11156.00
2018-08-11T06:40:49.813Z,14528.00
2018-08-11T06:41:49.765Z,13512.00
2018-08-11T06:42:49.812Z,11804.00
2018-08-11T06:43:49.737Z,16000.00
2018-08-11T06:44:49.735Z,16576.00
2018-08-11T06:45:49.716Z,11352.00
2018-08-11T06:46:49.854Z,10776.00
2018-08-11T06:47:49.709Z,21440.00
2018-08-11T06:48:49.702Z,27872.00
2018-08-11T06:49:49.673Z,30080.00
2018-08-11T06:50:49.664Z,30880.00
2018-08-11T06:51:49.649Z,32032.00
2018-08-11T06:52:49.654Z,32576.00
2018-08-11T06:53:49.629Z,33120.00
2018-08-11T06:54:49.660Z,33472.00
2018-08-11T06:55:49.614Z,30880.00
2018-08-11T06:56:49.622Z,22528.00
2018-08-11T06:57:49.610Z,19488.00
2018-08-11T06:58:49.580Z,30144.00
2018-08-11T06:59:49.566Z,35456.00
2018-08-11T07:00:49.558Z,35872.00
2018-08-11T07:01:49.607Z,37760.00
2018-08-11T07:02:51.925Z,27712.00
2018-08-11T07:03:49.522Z,30112.00
2018-08-11T07:04:49.508Z,31808.00
2018-08-11T07:05:49.504Z,27232.00
2018-08-11T07:06:49.549Z,28736.00
2018-08-11T07:07:49.551Z,26560.00
2018-08-11T07:08:49.474Z,21024.00
2018-08-11T07:09:49.458Z,20160.00
2018-08-11T07:10:49.448Z,18624.00
2018-08-11T07:11:49.438Z,17952.00
2018-08-11T07:12:49.452Z,17216.00
2018-08-11T07:13:49.463Z,16864.00
2018-08-11T07:14:49.409Z,16928.00
2018-08-11T07:15:49.399Z,16704.00
2018-08-11T07:16:49.386Z,17152.00
2018-08-11T07:17:49.393Z,18240.00
2018-08-11T07:18:49.361Z,19136.00
2018-08-11T07:19:49.405Z,19744.00
2018-08-11T07:20:49.346Z,19744.00
2018-08-11T07:21:49.334Z,19008.00
2018-08-11T07:22:49.335Z,19488.00
2018-08-11T07:23:49.316Z,21248.00
2018-08-11T07:24:49.310Z,19328.00
2018-08-11T07:25:49.351Z,19488.00
2018-08-11T07:26:49.280Z,20352.00
2018-08-11T07:27:49.405Z,40640.00
2018-08-11T07:28:49.272Z,23168.00
2018-08-11T07:29:49.250Z,23168.00
2018-08-11T07:30:49.252Z,31872.00
2018-08-11T07:31:49.229Z,34048.00
2018-08-11T07:32:49.245Z,22208.00
2018-08-11T07:33:49.227Z,19200.00
2018-08-11T07:34:49.196Z,22176.00
2018-08-11T07:35:49.243Z,32640.00
2018-08-11T07:36:49.347Z,22048.00
2018-08-11T07:37:49.168Z,17760.00
2018-08-11T07:38:49.225Z,19968.00
2018-08-11T11:36:32.344Z,106304.00
2018-08-11T11:37:15.065Z,106784.00
2018-08-11T11:38:13.976Z,105536.00
2018-08-11T11:39:13.968Z,108224.00
2018-08-11T11:40:13.955Z,104800.00
2018-08-11T11:41:13.945Z,106368.00
2018-08-11T11:42:13.960Z,107232.00
2018-08-11T11:43:13.935Z,105344.00
2018-08-11T11:44:13.926Z,102816.00
2018-08-11T11:45:13.937Z,99776.00
2018-08-11T11:46:13.899Z,95456.00
2018-08-11T11:47:13.892Z,95680.00
2018-08-11T11:48:13.903Z,92480.00
2018-08-11T11:49:13.902Z,92320.00
2018-08-11T11:50:13.966Z,91520.00
2018-08-11T11:51:13.878Z,91136.00
2018-08-11T11:52:13.916Z,96288.00
2018-08-11T11:53:13.994Z,98912.00
2018-08-11T11:54:13.860Z,99360.00
2018-08-11T11:55:13.819Z,98592.00
2018-08-11T11:56:13.814Z,96704.00
2018-08-11T11:57:13.821Z,86336.00
2018-08-11T11:58:45.336Z,44448.00
2018-08-11T11:59:13.781Z,102496.00
2018-08-11T12:00:14.413Z,102144.00
2018-08-11T12:01:13.761Z,102624.00
2018-08-11T12:02:13.758Z,102240.00
2018-08-11T12:03:13.756Z,12068.00
2018-08-11T12:04:13.737Z,51200.00
2018-08-11T12:05:13.723Z,100800.00
2018-08-11T12:06:13.715Z,96800.00
2018-08-11T12:07:13.711Z,98848.00
2018-08-11T12:08:13.717Z,98208.00
2018-08-11T12:09:13.686Z,98336.00
2018-08-11T12:10:13.678Z,105248.00
2018-08-11T12:11:32.715Z,103744.00
2018-08-11T12:12:29.694Z,101504.00
2018-08-11T12:13:29.702Z,104736.00
2018-08-11T12:14:29.679Z,102336.00
2018-08-11T12:15:29.665Z,15276.00
2018-08-11T12:16:29.658Z,17248.00
2018-08-11T12:17:29.660Z,15140.00
2018-08-11T12:18:30.300Z,14640.00
2018-08-11T12:19:29.673Z,14836.00
2018-08-11T12:20:29.636Z,16000.00
2018-08-11T12:21:29.639Z,42368.00
2018-08-11T12:22:29.604Z,28160.00
2018-08-11T12:23:48.939Z,52736.00
2018-08-11T12:24:29.584Z,19424.00
2018-08-11T12:25:31.576Z,100448.00
2018-08-11T12:26:29.569Z,77696.00
2018-08-11T12:27:29.575Z,70912.00
2018-08-11T12:28:29.567Z,95552.00
2018-08-11T12:29:29.536Z,100128.00
2018-08-11T12:30:29.556Z,59264.00
2018-08-11T12:31:29.528Z,58496.00
2018-08-11T12:32:29.513Z,103552.00
2018-08-11T12:33:29.529Z,104768.00
2018-08-11T12:34:29.641Z,103392.00
2018-08-11T12:35:29.472Z,101408.00
2018-08-11T12:36:29.582Z,100256.00
2018-08-11T12:37:29.465Z,100576.00
2018-08-11T12:38:31.789Z,100864.00
2018-08-11T12:39:29.460Z,101472.00
2018-08-11T12:40:29.427Z,100928.00
2018-08-11T12:41:29.431Z,91232.00
2018-08-11T12:42:29.410Z,66176.00
2018-08-11T12:43:29.487Z,30624.00
2018-08-11T12:44:29.419Z,99936.00
2018-08-11T12:45:29.438Z,101632.00
2018-08-11T12:46:29.369Z,100960.00
2018-08-11T12:47:29.376Z,99968.00
2018-08-11T12:48:29.379Z,99936.00
2018-08-11T12:49:29.367Z,100640.00
2018-08-11T12:50:29.335Z,100992.00
2018-08-11T12:51:29.341Z,101152.00
2018-08-11T12:52:29.330Z,99712.00
2018-08-11T12:53:30.305Z,96576.00
2018-08-11T12:54:29.293Z,96960.00
2018-08-11T12:55:29.374Z,96416.00
2018-08-11T12:56:29.380Z,96896.00
2018-08-11T12:57:29.293Z,82720.00
2018-08-11T12:58:29.301Z,32416.00
2018-08-11T12:59:29.244Z,12424.00
2018-08-11T13:00:29.251Z,11820.00
2018-08-11T13:01:29.283Z,11480.00
2018-08-11T13:02:29.227Z,13468.00
2018-08-11T13:03:29.240Z,12504.00
2018-08-11T13:04:29.234Z,13372.00
2018-08-11T13:05:29.263Z,13068.00
2018-08-11T13:06:29.176Z,12012.00
2018-08-11T13:07:29.175Z,11992.00
2018-08-11T13:08:29.187Z,12960.00
2018-08-11T13:09:29.148Z,13336.00
2018-08-11T13:10:29.150Z,13584.00
2018-08-11T13:11:29.141Z,13880.00
2018-08-11T13:12:29.144Z,13968.00
2018-08-11T13:13:29.130Z,14528.00
2018-08-11T13:14:29.111Z,14560.00
2018-08-11T13:15:29.095Z,13976.00
2018-08-11T13:16:29.093Z,13448.00
2018-08-11T13:17:29.089Z,13260.00
2018-08-11T13:18:29.091Z,12592.00
2018-08-11T13:19:29.063Z,12608.00
2018-08-11T13:20:29.066Z,13840.00
2018-08-11T13:21:29.031Z,14124.00
2018-08-11T13:22:29.015Z,13032.00
2018-08-11T13:23:29.656Z,11176.00
2018-08-11T13:24:28.999Z,9444.00
2018-08-11T13:25:29.014Z,8568.00
2018-08-11T13:26:28.980Z,7976.00
2018-08-11T13:27:28.986Z,7784.00
2018-08-11T13:28:29.004Z,7556.00
2018-08-11T13:29:28.941Z,7264.00
2018-08-11T13:30:28.942Z,7052.00
2018-08-11T13:31:28.944Z,6832.00
2018-08-11T13:32:28.967Z,6672.00
2018-08-11T13:33:28.916Z,6796.00
2018-08-11T13:34:28.941Z,7128.00
2018-08-11T13:35:28.885Z,7596.00
2018-08-11T13:36:28.899Z,8084.00
2018-08-11T13:37:28.873Z,8296.00
2018-08-11T13:38:28.885Z,8364.00
2018-08-11T13:39:28.863Z,8684.00
2018-08-11T13:40:28.843Z,9252.00
2018-08-11T13:41:28.841Z,9884.00
2018-08-11T13:42:28.806Z,9956.00
2018-08-11T13:43:28.815Z,9780.00
2018-08-11T13:44:28.819Z,10256.00
2018-08-11T13:45:40.155Z,10712.00
2018-08-11T13:46:28.777Z,10612.00
2018-08-11T13:47:28.757Z,10316.00
2018-08-11T13:48:28.753Z,10408.00
2018-08-11T13:49:28.755Z,10012.00
2018-08-11T13:50:28.777Z,9572.00
2018-08-11T13:51:28.732Z,9304.00
2018-08-11T13:52:28.698Z,9184.00
2018-08-11T13:53:28.697Z,9452.00
2018-08-11T13:54:28.718Z,10024.00
2018-08-11T13:55:28.699Z,10284.00
2018-08-11T13:56:28.670Z,10212.00
2018-08-11T13:57:28.664Z,10340.00
2018-08-11T13:58:28.661Z,10580.00
2018-08-11T13:59:28.637Z,12148.00
2018-08-11T14:00:28.658Z,12252.00
2018-08-11T14:01:28.616Z,11412.00
2018-08-11T14:02:28.592Z,10588.00
2018-08-11T14:03:28.587Z,10232.00
2018-08-11T14:04:28.598Z,10432.00
2018-08-11T14:05:28.583Z,10660.00
2018-08-11T14:06:28.601Z,10800.00
2018-08-11T14:07:28.665Z,11432.00
2018-08-11T14:08:28.563Z,12324.00
2018-08-11T14:09:31.940Z,12520.00
2018-08-11T14:10:28.513Z,12320.00
2018-08-11T14:11:28.523Z,11832.00
2018-08-11T14:12:28.513Z,11376.00
2018-08-11T14:13:28.496Z,10604.00
2018-08-11T14:14:28.479Z,9816.00
2018-08-11T14:15:28.464Z,9204.00
2018-08-11T14:16:28.478Z,8768.00
2018-08-11T14:17:28.457Z,8412.00
2018-08-11T14:18:28.419Z,8180.00
2018-08-11T14:19:28.460Z,8260.00
2018-08-11T14:20:28.490Z,8560.00
2018-08-11T14:21:28.387Z,8848.00
2018-08-11T14:22:28.398Z,9168.00
2018-08-11T14:23:28.396Z,9268.00
2018-08-11T14:24:28.372Z,9268.00
2018-08-11T14:25:28.343Z,9236.00
2018-08-11T14:26:28.336Z,9360.00
2018-08-11T14:27:28.329Z,9404.00
2018-08-11T14:28:28.316Z,9248.00
2018-08-11T14:29:28.350Z,9108.00
2018-08-11T14:30:28.314Z,8988.00
2018-08-11T14:31:28.305Z,9264.00
2018-08-11T14:32:28.334Z,9580.00
2018-08-11T14:33:28.261Z,9852.00
2018-08-11T14:34:28.365Z,9948.00
2018-08-11T14:35:30.589Z,9436.00
2018-08-11T14:36:28.254Z,9156.00
2018-08-11T14:37:28.220Z,8752.00
2018-08-11T14:38:28.247Z,8316.00
2018-08-11T14:39:28.214Z,7740.00
2018-08-11T14:40:28.211Z,7380.00
2018-08-11T14:41:28.172Z,7084.00
2018-08-11T14:42:28.162Z,6440.00
2018-08-11T14:43:28.158Z,6316.00
2018-08-11T14:44:28.238Z,6684.00
2018-08-11T14:45:28.164Z,7004.00
2018-08-11T14:46:28.125Z,7344.00
2018-08-11T14:47:28.126Z,7564.00
2018-08-11T14:48:28.142Z,7704.00
2018-08-11T14:49:28.086Z,7540.00
2018-08-11T14:50:28.130Z,6744.00
2018-08-11T14:51:28.113Z,6196.00
2018-08-11T14:52:28.060Z,6220.00
2018-08-11T14:53:28.044Z,6736.00
2018-08-11T14:54:28.108Z,6832.00
2018-08-11T14:55:28.034Z,6928.00
2018-08-11T14:56:28.012Z,6920.00
2018-08-11T14:57:28.000Z,6684.00
2018-08-11T14:58:27.990Z,6208.00
2018-08-11T14:59:27.999Z,5972.00
2018-08-11T15:00:28.021Z,6000.00
2018-08-11T15:01:27.961Z,6192.00
2018-08-11T15:02:27.949Z,6352.00
2018-08-11T15:03:27.935Z,6460.00
2018-08-11T15:04:27.926Z,6556.00
2018-08-11T15:05:27.934Z,6868.00
2018-08-11T15:06:27.941Z,7200.00
2018-08-11T15:07:27.909Z,7348.00
2018-08-11T15:08:27.881Z,7344.00
2018-08-11T15:09:27.872Z,7220.00
2018-08-11T15:10:27.884Z,6912.00
2018-08-11T15:11:27.876Z,6436.00
2018-08-11T15:12:27.841Z,6732.00
2018-08-11T15:13:27.833Z,6684.00
2018-08-11T15:14:27.820Z,6500.00
2018-08-11T15:15:27.823Z,6392.00
2018-08-11T15:16:27.801Z,6532.00
2018-08-11T15:17:27.824Z,6796.00
2018-08-11T15:18:27.780Z,7004.00
2018-08-11T15:19:27.767Z,6880.00
2018-08-11T15:20:27.768Z,6768.00
2018-08-11T15:21:27.744Z,6664.00
2018-08-11T15:22:27.733Z,6544.00
2018-08-11T15:23:27.743Z,6240.00
2018-08-11T15:24:27.744Z,5984.00
2018-08-11T15:25:27.735Z,6124.00
2018-08-11T15:26:27.710Z,6140.00
2018-08-11T15:27:27.680Z,5916.00
2018-08-11T15:28:27.694Z,5800.00
2018-08-11T15:29:27.675Z,5768.00
2018-08-11T15:30:27.701Z,5640.00
2018-08-11T15:31:27.647Z,5440.00
2018-08-11T15:32:27.650Z,5332.00
2018-08-11T15:33:27.718Z,5268.00
2018-08-11T15:34:27.617Z,5316.00
2018-08-11T15:35:27.642Z,5368.00
2018-08-11T15:36:27.626Z,5308.00
2018-08-11T15:37:27.589Z,5192.00
2018-08-11T15:38:27.584Z,5104.00
2018-08-11T15:39:27.576Z,5028.00
2018-08-11T15:40:27.553Z,5004.00
2018-08-11T15:41:27.543Z,4988.00
2018-08-11T15:42:27.538Z,4960.00
2018-08-11T15:43:27.531Z,4984.00
2018-08-11T15:44:27.525Z,5020.00
2018-08-11T15:45:27.485Z,5084.00
2018-08-11T15:46:27.489Z,5224.00
2018-08-11T15:47:27.472Z,5340.00
2018-08-11T15:48:27.473Z,5440.00
2018-08-11T15:49:27.469Z,5520.00
2018-08-11T15:50:27.454Z,5536.00
2018-08-11T15:51:27.437Z,5460.00
2018-08-11T15:52:27.439Z,5380.00
2018-08-11T15:53:27.405Z,5316.00
2018-08-11T15:54:27.415Z,5284.00
2018-08-11T15:55:27.390Z,5292.00
2018-08-11T15:56:27.399Z,5320.00
2018-08-11T15:57:27.372Z,5328.00
2018-08-11T15:58:27.379Z,5252.00
2018-08-11T15:59:27.367Z,5124.00
2018-08-11T16:00:27.324Z,5024.00
2018-08-11T16:01:27.351Z,5004.00
2018-08-11T16:02:27.304Z,4928.00
2018-08-11T16:03:27.294Z,4872.00
2018-08-11T16:04:27.301Z,4748.00
2018-08-11T16:05:27.315Z,4780.00
2018-08-11T16:06:27.301Z,4740.00
2018-08-11T16:07:27.252Z,4696.00
2018-08-11T16:08:27.241Z,4692.00
2018-08-11T16:09:27.272Z,4720.00
2018-08-11T16:10:27.219Z,4772.00
2018-08-11T16:11:27.259Z,4900.00
2018-08-11T16:12:27.202Z,5012.00
2018-08-11T16:13:27.188Z,5032.00
2018-08-11T16:14:27.179Z,4996.00
2018-08-11T16:15:27.166Z,4920.00
2018-08-11T16:16:27.168Z,4804.00
2018-08-11T16:17:27.157Z,4716.00
2018-08-11T16:18:27.169Z,4632.00